Time,TemperatureF,DewpointF,PressureIn,WindDirection,WindDirectionDegrees,WindSpeedMPH,WindSpeedGustMPH,Humidity,HourlyPrecipIn,Conditions,Clouds,dailyrainin,SoftwareType,DateUTC
2016-09-25 00:04:00,47.0,38.0,30.16,NNW,348,2.0,6.0,71,-99.99,,,-99.99,,2016-09-25 04:04:00,
2016-09-25 00:16:00,47.0,38.0,30.16,WSW,241,2.0,7.0,71,-99.99,,,-99.99,,2016-09-25 04:16:00,
2016-09-25 00:25:00,47.0,38.0,30.16,WSW,241,2.0,7.0,71,-99.99,,,-99.99,,2016-09-25 04:25:00,
2016-09-25 01:08:00,46.0,38.0,30.16,WNW,287,1.0,4.0,73,-99.99,,,-99.99,,2016-09-25 05:08:00,
2016-09-25 01:18:00,46.0,38.0,30.16,WNW,287,1.0,4.0,73,-99.99,,,-99.99,,2016-09-25 05:18:00,
2016-09-25 01:28:00,45.0,38.0,30.16,West,260,0.0,4.0,75,-99.99,,,-99.99,,2016-09-25 05:28:00,
2016-09-25 01:36:00,45.0,38.0,30.16,WNW,282,1.0,4.0,76,-99.99,,,-99.99,,2016-09-25 05:36:00,
2016-09-25 01:50:00,45.0,38.0,30.16,WNW,282,1.0,4.0,76,-99.99,,,-99.99,,2016-09-25 05:50:00,
2016-09-25 02:05:00,45.0,38.0,30.17,WNW,299,1.0,5.0,75,-99.99,,,-99.99,,2016-09-25 06:05:00,
2016-09-25 02:15:00,45.0,38.0,30.17,WNW,299,1.0,5.0,75,-99.99,,,-99.99,,2016-09-25 06:15:00,
2016-09-25 02:26:00,44.0,36.0,30.17,NW,308,1.0,6.0,74,-99.99,,,-99.99,,2016-09-25 06:26:00,
2016-09-25 02:36:00,44.0,36.0,30.16,NW,323,0.0,3.0,74,-99.99,,,-99.99,,2016-09-25 06:36:00,
2016-09-25 02:46:00,44.0,36.0,30.16,NW,323,0.0,3.0,74,-99.99,,,-99.99,,2016-09-25 06:46:00,
2016-09-25 02:57:00,44.0,36.0,30.16,NW,324,1.0,5.0,74,-99.99,,,-99.99,,2016-09-25 06:57:00,
2016-09-25 03:06:00,44.0,37.0,30.16,NW,305,1.0,6.0,75,-99.99,,,-99.99,,2016-09-25 07:06:00,
2016-09-25 03:16:00,44.0,37.0,30.16,NW,305,1.0,6.0,75,-99.99,,,-99.99,,2016-09-25 07:16:00,
2016-09-25 03:25:00,43.0,36.0,30.16,WNW,293,1.0,4.0,76,-99.99,,,-99.99,,2016-09-25 07:25:00,
2016-09-25 03:35:00,43.0,36.0,30.16,NNW,348,1.0,7.0,76,-99.99,,,-99.99,,2016-09-25 07:35:00,
2016-09-25 03:50:00,43.0,36.0,30.16,NNW,348,1.0,7.0,76,-99.99,,,-99.99,,2016-09-25 07:50:00,
2016-09-25 03:59:00,43.0,35.0,30.16,NW,307,1.0,5.0,74,-99.99,,,-99.99,,2016-09-25 07:59:00,
2016-09-25 04:13:00,43.0,35.0,30.17,NW,308,2.0,6.0,73,-99.99,,,-99.99,,2016-09-25 08:13:00,
2016-09-25 04:24:00,43.0,35.0,30.17,SSW,195,2.0,7.0,74,-99.99,,,-99.99,,2016-09-25 08:24:00,
2016-09-25 04:44:00,43.0,35.0,30.16,West,271,2.0,7.0,74,-99.99,,,-99.99,,2016-09-25 08:44:00,
2016-09-25 05:04:00,42.0,35.0,30.16,West,273,2.0,6.0,77,-99.99,,,-99.99,,2016-09-25 09:04:00,
2016-09-25 05:14:00,42.0,35.0,30.16,West,273,2.0,6.0,77,-99.99,,,-99.99,,2016-09-25 09:14:00,
2016-09-25 05:44:00,41.0,35.0,30.17,West,260,3.0,6.0,79,-99.99,,,-99.99,,2016-09-25 09:44:00,
2016-09-25 05:56:00,41.0,35.0,30.17,NW,305,2.0,-999.0,79,-99.99,,,-99.99,,2016-09-25 09:56:00,
2016-09-25 06:14:00,41.0,35.0,30.18,WSW,249,2.0,7.0,79,-99.99,,,-99.99,,2016-09-25 10:14:00,
2016-09-25 06:24:00,41.0,35.0,30.18,NNW,334,1.0,7.0,79,-99.99,,,-99.99,,2016-09-25 10:24:00,
2016-09-25 06:59:00,41.0,35.0,30.18,West,266,4.0,9.0,79,-99.99,,,-99.99,,2016-09-25 10:59:00,
2016-09-25 07:08:00,41.0,35.0,30.19,NW,313,1.0,8.0,79,-99.99,,,-99.99,,2016-09-25 11:08:00,
2016-09-25 07:15:00,41.0,35.0,30.19,NW,313,1.0,8.0,79,-99.99,,,-99.99,,2016-09-25 11:15:00,
2016-09-25 07:29:00,41.0,35.0,30.19,WSW,257,3.0,13.0,79,-99.99,,,-99.99,,2016-09-25 11:29:00,
2016-09-25 07:47:00,41.0,35.0,30.19,WSW,258,2.0,10.0,79,-99.99,,,-99.99,,2016-09-25 11:47:00,
2016-09-25 07:59:00,41.0,35.0,30.19,SSW,211,4.0,13.0,80,-99.99,,,-99.99,,2016-09-25 11:59:00,
2016-09-25 08:06:00,41.0,35.0,30.19,WNW,298,3.0,9.0,80,-99.99,,,-99.99,,2016-09-25 12:06:00,
2016-09-25 08:15:00,41.0,35.0,30.19,WNW,298,3.0,9.0,80,-99.99,,,-99.99,,2016-09-25 12:15:00,
2016-09-25 08:27:00,42.0,36.0,30.19,West,275,4.0,9.0,80,-99.99,,,-99.99,,2016-09-25 12:27:00,
2016-09-25 08:35:00,42.0,36.0,30.19,SW,221,3.0,12.0,80,-99.99,,,-99.99,,2016-09-25 12:35:00,
2016-09-25 08:46:00,42.0,36.0,30.19,SW,221,3.0,12.0,80,-99.99,,,-99.99,,2016-09-25 12:46:00,
2016-09-25 09:00:00,43.0,37.0,30.19,North,355,4.0,13.0,79,-99.99,,,-99.99,,2016-09-25 13:00:00,
2016-09-25 09:06:00,44.0,38.0,30.19,WSW,249,3.0,10.0,78,-99.99,,,-99.99,,2016-09-25 13:06:00,
2016-09-25 09:16:00,44.0,38.0,30.19,WSW,249,3.0,10.0,78,-99.99,,,-99.99,,2016-09-25 13:16:00,
2016-09-25 09:26:00,44.0,37.0,30.19,NW,324,4.0,7.0,77,-99.99,,,-99.99,,2016-09-25 13:26:00,
2016-09-25 09:45:00,45.0,38.0,30.19,West,275,3.0,8.0,77,-99.99,,,-99.99,,2016-09-25 13:45:00,
2016-09-25 09:58:00,46.0,39.0,30.19,West,269,4.0,8.0,75,-99.99,,,-99.99,,2016-09-25 13:58:00,
2016-09-25 10:05:00,47.0,39.0,30.19,NW,313,4.0,10.0,73,-99.99,,,-99.99,,2016-09-25 14:05:00,
2016-09-25 10:13:00,47.0,39.0,30.19,NW,313,4.0,-999.0,73,-99.99,,,-99.99,,2016-09-25 14:13:00,
2016-09-25 10:34:00,47.0,38.0,30.20,WNW,287,5.0,13.0,70,-99.99,,,-99.99,,2016-09-25 14:34:00,
2016-09-25 10:44:00,47.0,38.0,30.20,WNW,287,5.0,13.0,70,-99.99,,,-99.99,,2016-09-25 14:44:00,
2016-09-25 10:55:00,48.0,38.0,30.20,NNW,333,-999.9,-999.0,69,-99.99,,,-99.99,,2016-09-25 14:55:00,
2016-09-25 11:05:00,49.0,39.0,30.19,WNW,303,6.0,14.0,68,-99.99,,,-99.99,,2016-09-25 15:05:00,
2016-09-25 11:13:00,49.0,39.0,30.19,WNW,303,6.0,14.0,68,-99.99,,,-99.99,,2016-09-25 15:13:00,
2016-09-25 11:24:00,49.0,38.0,30.19,West,260,6.0,18.0,65,-99.99,,,-99.99,,2016-09-25 15:24:00,
2016-09-25 12:14:00,52.0,39.0,30.18,NW,322,6.0,16.0,61,-99.99,,,-99.99,,2016-09-25 16:14:00,
2016-09-25 12:27:00,52.0,37.0,30.18,NNW,334,6.0,11.0,56,-99.99,,,-99.99,,2016-09-25 16:27:00,
2016-09-25 12:35:00,52.0,36.0,30.18,NW,305,6.0,16.0,55,-99.99,,,-99.99,,2016-09-25 16:35:00,
2016-09-25 13:08:00,54.0,34.0,30.18,NNE,21,5.0,16.0,46,-99.99,,,-99.99,,2016-09-25 17:08:00,